sensor_id;sensor_type;location;lat;lon;timestamp;P1;durP1;ratioP1;P2;durP2;ratioP2
22515;SDS011;11424;48.860;9.624;2023-04-01T00:01:56;3.9;;;6.5;;
22515;SDS011;11424;48.860;9.624;2023-04-01T00:06:56;3.7;;;5.4;;
22515;SDS011;11424;48.860;9.624;2023-04-01T00:11:56;3.6;;;5.9;;
22515;SDS011;11424;48.860;9.624;2023-04-01T00:16:56;3.6;;;5.4;;
22515;SDS011;11424;48.860;9.624;2023-04-01T00:21:56;0.7;;;1.3;;
22515;SDS011;11424;48.860;9.624;2023-04-01T00:26:56;0.5;;;0.7;;
22515;SDS011;11424;48.860;9.624;2023-04-01T00:31:56;0.7;;;0.9;;
22515;SDS011;11424;48.860;9.624;2023-04-01T00:36:56;3.8;;;5.8;;
22515;SDS011;11424;48.860;9.624;2023-04-01T00:41:56;4;;;6.2;;
22515;SDS011;11424;48.860;9.624;2023-04-01T00:46:56;3.7;;;5.6;;
22515;SDS011;11424;48.860;9.624;2023-04-01T00:51:57;4;;;7.2;;
22515;SDS011;11424;48.860;9.624;2023-04-01T00:56:57;4;;;6.1;;
22515;SDS011;11424;48.860;9.624;2023-04-01T01:01:56;3.5;;;5.5;;
22515;SDS011;11424;48.860;9.624;2023-04-01T01:06:58;0.6;;;1.2;;
22515;SDS011;11424;48.860;9.624;2023-04-01T01:11:58;0.7;;;1;;
22515;SDS011;11424;48.860;9.624;2023-04-01T01:16:58;3.8;;;6.3;;
22515;SDS011;11424;48.860;9.624;2023-04-01T01:22:02;3.2;;;4.4;;
22515;SDS011;11424;48.860;9.624;2023-04-01T01:26:59;3.3;;;4.6;;
22515;SDS011;11424;48.860;9.624;2023-04-01T01:31:57;3.7;;;5.6;;
22515;SDS011;11424;48.860;9.624;2023-04-01T01:36:57;3.5;;;5.2;;
22515;SDS011;11424;48.860;9.624;2023-04-01T01:41:57;3.5;;;5.8;;
22515;SDS011;11424;48.860;9.624;2023-04-01T01:46:56;4.3;;;7.8;;
22515;SDS011;11424;48.860;9.624;2023-04-01T01:51:56;0.5;;;0.6;;
22515;SDS011;11424;48.860;9.624;2023-04-01T01:56:59;3.5;;;4.9;;
22515;SDS011;11424;48.860;9.624;2023-04-01T02:01:56;3;;;4;;
22515;SDS011;11424;48.860;9.624;2023-04-01T02:06:58;3.6;;;4.8;;
22515;SDS011;11424;48.860;9.624;2023-04-01T02:11:57;3.6;;;4.6;;
22515;SDS011;11424;48.860;9.624;2023-04-01T02:16:57;3.3;;;4.8;;
22515;SDS011;11424;48.860;9.624;2023-04-01T02:21:57;3.3;;;5.2;;
22515;SDS011;11424;48.860;9.624;2023-04-01T02:26:56;3;;;4;;
22515;SDS011;11424;48.860;9.624;2023-04-01T02:31:56;3.8;;;5.3;;
22515;SDS011;11424;48.860;9.624;2023-04-01T02:36:56;0.5;;;0.7;;
22515;SDS011;11424;48.860;9.624;2023-04-01T02:41:56;0.5;;;0.7;;
22515;SDS011;11424;48.860;9.624;2023-04-01T02:46:56;0.5;;;0.6;;
22515;SDS011;11424;48.860;9.624;2023-04-01T02:51:56;0.3;;;0.3;;
22515;SDS011;11424;48.860;9.624;2023-04-01T02:56:56;3.1;;;4.3;;
22515;SDS011;11424;48.860;9.624;2023-04-01T03:01:56;3.3;;;4.1;;
22515;SDS011;11424;48.860;9.624;2023-04-01T03:06:56;3.3;;;4.1;;
22515;SDS011;11424;48.860;9.624;2023-04-01T03:11:56;3.8;;;5.3;;
22515;SDS011;11424;48.860;9.624;2023-04-01T03:16:56;2.3;;;3.9;;
22515;SDS011;11424;48.860;9.624;2023-04-01T03:21:56;0.4;;;0.6;;
22515;SDS011;11424;48.860;9.624;2023-04-01T03:26:56;0.5;;;0.9;;
22515;SDS011;11424;48.860;9.624;2023-04-01T03:31:56;0.4;;;0.9;;
22515;SDS011;11424;48.860;9.624;2023-04-01T03:36:56;3.2;;;4.6;;
22515;SDS011;11424;48.860;9.624;2023-04-01T03:41:56;0.4;;;0.4;;
22515;SDS011;11424;48.860;9.624;2023-04-01T03:46:56;0.4;;;0.6;;
22515;SDS011;11424;48.860;9.624;2023-04-01T03:51:56;0.2;;;0.4;;
22515;SDS011;11424;48.860;9.624;2023-04-01T03:56:56;3.3;;;4.2;;
22515;SDS011;11424;48.860;9.624;2023-04-01T04:01:56;0.4;;;0.4;;
22515;SDS011;11424;48.860;9.624;2023-04-01T04:06:56;0.2;;;0.3;;
22515;SDS011;11424;48.860;9.624;2023-04-01T04:11:56;0.4;;;0.4;;
22515;SDS011;11424;48.860;9.624;2023-04-01T04:16:56;2.8;;;3.4;;
22515;SDS011;11424;48.860;9.624;2023-04-01T04:21:56;3;;;3.3;;
22515;SDS011;11424;48.860;9.624;2023-04-01T04:26:56;3.6;;;5;;
22515;SDS011;11424;48.860;9.624;2023-04-01T04:31:56;3.6;;;5;;
22515;SDS011;11424;48.860;9.624;2023-04-01T04:36:56;3.2;;;3.9;;
22515;SDS011;11424;48.860;9.624;2023-04-01T04:41:56;3.3;;;4.2;;
22515;SDS011;11424;48.860;9.624;2023-04-01T04:46:56;1;;;1.6;;
22515;SDS011;11424;48.860;9.624;2023-04-01T04:51:56;0.8;;;1.3;;
22515;SDS011;11424;48.860;9.624;2023-04-01T04:56:56;0.8;;;1.3;;
22515;SDS011;11424;48.860;9.624;2023-04-01T05:01:56;1.3;;;1.7;;
22515;SDS011;11424;48.860;9.624;2023-04-01T05:06:56;1.4;;;3.2;;
22515;SDS011;11424;48.860;9.624;2023-04-01T05:11:56;1.9;;;4.7;;
22515;SDS011;11424;48.860;9.624;2023-04-01T05:16:56;1.8;;;3.3;;
22515;SDS011;11424;48.860;9.624;2023-04-01T05:21:56;1.9;;;4.3;;
22515;SDS011;11424;48.860;9.624;2023-04-01T05:26:56;1.3;;;3.4;;
22515;SDS011;11424;48.860;9.624;2023-04-01T05:31:56;2.1;;;5;;
22515;SDS011;11424;48.860;9.624;2023-04-01T05:36:56;1.4;;;3.3;;
22515;SDS011;11424;48.860;9.624;2023-04-01T05:41:56;1;;;1.4;;
22515;SDS011;11424;48.860;9.624;2023-04-01T05:46:56;0.7;;;0.9;;
22515;SDS011;11424;48.860;9.624;2023-04-01T05:51:56;0.7;;;0.7;;
22515;SDS011;11424;48.860;9.624;2023-04-01T05:56:56;0.9;;;1;;
22515;SDS011;11424;48.860;9.624;2023-04-01T06:01:56;0.9;;;1;;
22515;SDS011;11424;48.860;9.624;2023-04-01T06:06:56;0.6;;;1;;
22515;SDS011;11424;48.860;9.624;2023-04-01T06:12:03;0.7;;;1.5;;
22515;SDS011;11424;48.860;9.624;2023-04-01T06:17:00;0.8;;;1.1;;
22515;SDS011;11424;48.860;9.624;2023-04-01T06:22:02;1;;;1.5;;
22515;SDS011;11424;48.860;9.624;2023-04-01T06:26:57;0.7;;;1.2;;
22515;SDS011;11424;48.860;9.624;2023-04-01T06:32:01;0.7;;;1.6;;
22515;SDS011;11424;48.860;9.624;2023-04-01T06:37:00;0.4;;;0.6;;
22515;SDS011;11424;48.860;9.624;2023-04-01T06:41:59;0.4;;;0.5;;
22515;SDS011;11424;48.860;9.624;2023-04-01T06:46:57;0.6;;;0.8;;
22515;SDS011;11424;48.860;9.624;2023-04-01T06:51:58;0.5;;;0.7;;
22515;SDS011;11424;48.860;9.624;2023-04-01T06:56:58;0.3;;;0.7;;
22515;SDS011;11424;48.860;9.624;2023-04-01T07:01:57;0.5;;;0.5;;
22515;SDS011;11424;48.860;9.624;2023-04-01T07:06:57;0.5;;;0.7;;
22515;SDS011;11424;48.860;9.624;2023-04-01T07:11:59;0.5;;;0.9;;
22515;SDS011;11424;48.860;9.624;2023-04-01T07:16:58;0.5;;;0.5;;
22515;SDS011;11424;48.860;9.624;2023-04-01T07:21:58;0.5;;;0.6;;
22515;SDS011;11424;48.860;9.624;2023-04-01T07:26:57;0.7;;;1;;
22515;SDS011;11424;48.860;9.624;2023-04-01T07:32:03;0.8;;;1.3;;
22515;SDS011;11424;48.860;9.624;2023-04-01T07:36:58;0.7;;;1.1;;
22515;SDS011;11424;48.860;9.624;2023-04-01T07:41:58;0.9;;;1.1;;
22515;SDS011;11424;48.860;9.624;2023-04-01T07:46:59;0.8;;;0.8;;
22515;SDS011;11424;48.860;9.624;2023-04-01T07:51:58;0.9;;;1.9;;
22515;SDS011;11424;48.860;9.624;2023-04-01T07:56:57;0.7;;;1;;
22515;SDS011;11424;48.860;9.624;2023-04-01T08:01:58;0.5;;;0.6;;
22515;SDS011;11424;48.860;9.624;2023-04-01T08:06:58;0.5;;;0.6;;
22515;SDS011;11424;48.860;9.624;2023-04-01T08:12:00;0.9;;;1.2;;
22515;SDS011;11424;48.860;9.624;2023-04-01T08:16:57;0.5;;;0.6;;
22515;SDS011;11424;48.860;9.624;2023-04-01T08:21:57;0.4;;;0.4;;
22515;SDS011;11424;48.860;9.624;2023-04-01T08:26:57;0.6;;;0.8;;
22515;SDS011;11424;48.860;9.624;2023-04-01T08:31:57;0.5;;;0.5;;
22515;SDS011;11424;48.860;9.624;2023-04-01T08:36:57;0.6;;;0.6;;
22515;SDS011;11424;48.860;9.624;2023-04-01T08:42:01;0.7;;;1;;
22515;SDS011;11424;48.860;9.624;2023-04-01T08:47:01;0.4;;;0.4;;
22515;SDS011;11424;48.860;9.624;2023-04-01T08:52:03;0.6;;;0.6;;
22515;SDS011;11424;48.860;9.624;2023-04-01T08:56:57;0.5;;;0.7;;
22515;SDS011;11424;48.860;9.624;2023-04-01T09:02:11;0.5;;;0.5;;
22515;SDS011;11424;48.860;9.624;2023-04-01T09:07:06;0.7;;;0.9;;
22515;SDS011;11424;48.860;9.624;2023-04-01T09:12:01;0.5;;;0.5;;
22515;SDS011;11424;48.860;9.624;2023-04-01T09:17:02;0.4;;;0.9;;
22515;SDS011;11424;48.860;9.624;2023-04-01T09:22:32;0.5;;;0.6;;
22515;SDS011;11424;48.860;9.624;2023-04-01T09:27:00;0.6;;;0.8;;
22515;SDS011;11424;48.860;9.624;2023-04-01T09:32:02;0.5;;;0.8;;
22515;SDS011;11424;48.860;9.624;2023-04-01T09:37:00;0.5;;;0.5;;
22515;SDS011;11424;48.860;9.624;2023-04-01T09:41:58;0.5;;;0.5;;
22515;SDS011;11424;48.860;9.624;2023-04-01T09:47:00;0.6;;;0.6;;
22515;SDS011;11424;48.860;9.624;2023-04-01T09:52:01;0.7;;;0.7;;
22515;SDS011;11424;48.860;9.624;2023-04-01T09:57:04;0.5;;;0.5;;
22515;SDS011;11424;48.860;9.624;2023-04-01T10:02:01;0.5;;;0.7;;
22515;SDS011;11424;48.860;9.624;2023-04-01T10:06:58;0.4;;;0.4;;
22515;SDS011;11424;48.860;9.624;2023-04-01T10:12:01;0.5;;;0.9;;
22515;SDS011;11424;48.860;9.624;2023-04-01T10:17:00;0.5;;;0.5;;
22515;SDS011;11424;48.860;9.624;2023-04-01T10:21:59;0.5;;;0.9;;
22515;SDS011;11424;48.860;9.624;2023-04-01T10:27:00;0.4;;;0.4;;
22515;SDS011;11424;48.860;9.624;2023-04-01T10:32:04;0.4;;;0.4;;
22515;SDS011;11424;48.860;9.624;2023-04-01T10:36:57;0.5;;;0.5;;
22515;SDS011;11424;48.860;9.624;2023-04-01T10:43:10;0.3;;;0.3;;
22515;SDS011;11424;48.860;9.624;2023-04-01T10:52:03;0.4;;;0.4;;
22515;SDS011;11424;48.860;9.624;2023-04-01T10:56:57;0.5;;;0.6;;
22515;SDS011;11424;48.860;9.624;2023-04-01T11:02:28;0.7;;;0.7;;
22515;SDS011;11424;48.860;9.624;2023-04-01T11:07:17;0.8;;;0.8;;
22515;SDS011;11424;48.860;9.624;2023-04-01T11:12:08;0.6;;;0.6;;
22515;SDS011;11424;48.860;9.624;2023-04-01T11:17:05;0.4;;;0.4;;
22515;SDS011;11424;48.860;9.624;2023-04-01T11:21:59;0.5;;;0.5;;
22515;SDS011;11424;48.860;9.624;2023-04-01T11:26:59;0.6;;;0.6;;
22515;SDS011;11424;48.860;9.624;2023-04-01T11:31:58;0.6;;;0.6;;
22515;SDS011;11424;48.860;9.624;2023-04-01T11:36:58;0.7;;;0.7;;
22515;SDS011;11424;48.860;9.624;2023-04-01T11:41:59;0.6;;;0.6;;
22515;SDS011;11424;48.860;9.624;2023-04-01T11:47:03;0.5;;;0.5;;
22515;SDS011;11424;48.860;9.624;2023-04-01T11:52:00;0.5;;;0.5;;
22515;SDS011;11424;48.860;9.624;2023-04-01T11:56:59;0.5;;;0.8;;
22515;SDS011;11424;48.860;9.624;2023-04-01T12:01:59;0.4;;;0.4;;
22515;SDS011;11424;48.860;9.624;2023-04-01T12:06:59;0.4;;;0.4;;
22515;SDS011;11424;48.860;9.624;2023-04-01T12:12:00;0.4;;;0.4;;
22515;SDS011;11424;48.860;9.624;2023-04-01T12:16:59;0.2;;;0.2;;
22515;SDS011;11424;48.860;9.624;2023-04-01T12:22:02;0.3;;;0.3;;
22515;SDS011;11424;48.860;9.624;2023-04-01T12:26:59;0.5;;;0.5;;
22515;SDS011;11424;48.860;9.624;2023-04-01T12:31:58;0.5;;;0.5;;
22515;SDS011;11424;48.860;9.624;2023-04-01T12:36:59;3.2;;;4.3;;
22515;SDS011;11424;48.860;9.624;2023-04-01T12:41:59;3.9;;;6.3;;
22515;SDS011;11424;48.860;9.624;2023-04-01T12:47:00;3.4;;;4.3;;
22515;SDS011;11424;48.860;9.624;2023-04-01T12:52:05;0.2;;;0.2;;
22515;SDS011;11424;48.860;9.624;2023-04-01T12:57:01;3.5;;;4.8;;
22515;SDS011;11424;48.860;9.624;2023-04-01T13:02:01;6.4;;;7.9;;
22515;SDS011;11424;48.860;9.624;2023-04-01T13:07:00;3.7;;;4.5;;
22515;SDS011;11424;48.860;9.624;2023-04-01T13:12:03;3.3;;;4;;
22515;SDS011;11424;48.860;9.624;2023-04-01T13:16:57;3.8;;;5.6;;
22515;SDS011;11424;48.860;9.624;2023-04-01T13:21:58;4.5;;;7.1;;
22515;SDS011;11424;48.860;9.624;2023-04-01T13:26:58;0.6;;;0.6;;
22515;SDS011;11424;48.860;9.624;2023-04-01T13:32:01;0.4;;;0.4;;
22515;SDS011;11424;48.860;9.624;2023-04-01T13:37:01;0.3;;;0.3;;
22515;SDS011;11424;48.860;9.624;2023-04-01T13:42:01;0.2;;;0.2;;
22515;SDS011;11424;48.860;9.624;2023-04-01T13:47:04;0.3;;;0.3;;
22515;SDS011;11424;48.860;9.624;2023-04-01T13:52:07;0.3;;;0.3;;
22515;SDS011;11424;48.860;9.624;2023-04-01T13:57:00;0.2;;;0.2;;
22515;SDS011;11424;48.860;9.624;2023-04-01T14:01:58;0.4;;;0.4;;
22515;SDS011;11424;48.860;9.624;2023-04-01T14:06:59;0.2;;;0.2;;
22515;SDS011;11424;48.860;9.624;2023-04-01T14:12:01;0.2;;;0.2;;
22515;SDS011;11424;48.860;9.624;2023-04-01T14:17:01;0.2;;;0.2;;
22515;SDS011;11424;48.860;9.624;2023-04-01T14:21:58;0.3;;;0.3;;
22515;SDS011;11424;48.860;9.624;2023-04-01T14:27:01;0.3;;;0.3;;
22515;SDS011;11424;48.860;9.624;2023-04-01T14:31:59;0.3;;;0.3;;
22515;SDS011;11424;48.860;9.624;2023-04-01T14:37:03;0.3;;;0.3;;
22515;SDS011;11424;48.860;9.624;2023-04-01T14:42:00;0.3;;;0.5;;
22515;SDS011;11424;48.860;9.624;2023-04-01T14:47:07;0.4;;;0.4;;
22515;SDS011;11424;48.860;9.624;2023-04-01T14:51:57;0.3;;;0.3;;
22515;SDS011;11424;48.860;9.624;2023-04-01T14:57:02;0.6;;;0.7;;
22515;SDS011;11424;48.860;9.624;2023-04-01T15:01:58;0.5;;;0.5;;
22515;SDS011;11424;48.860;9.624;2023-04-01T15:07:00;0.3;;;0.3;;
22515;SDS011;11424;48.860;9.624;2023-04-01T15:12:00;1.5;;;1.6;;
22515;SDS011;11424;48.860;9.624;2023-04-01T15:17:01;0.9;;;0.9;;
22515;SDS011;11424;48.860;9.624;2023-04-01T15:22:01;1.7;;;1.8;;
22515;SDS011;11424;48.860;9.624;2023-04-01T15:27:02;0.9;;;0.9;;
22515;SDS011;11424;48.860;9.624;2023-04-01T15:31:58;0.5;;;0.5;;
22515;SDS011;11424;48.860;9.624;2023-04-01T15:36:58;0.7;;;0.7;;
22515;SDS011;11424;48.860;9.624;2023-04-01T15:42:04;1;;;1.2;;
22515;SDS011;11424;48.860;9.624;2023-04-01T15:46:57;0.9;;;0.9;;
22515;SDS011;11424;48.860;9.624;2023-04-01T15:51:59;0.7;;;0.7;;
22515;SDS011;11424;48.860;9.624;2023-04-01T15:57:02;0.8;;;0.8;;
22515;SDS011;11424;48.860;9.624;2023-04-01T16:02:07;0.6;;;0.6;;
22515;SDS011;11424;48.860;9.624;2023-04-01T16:07:01;0.5;;;0.5;;
22515;SDS011;11424;48.860;9.624;2023-04-01T16:11:58;0.3;;;0.3;;
22515;SDS011;11424;48.860;9.624;2023-04-01T16:17:00;0.3;;;0.3;;
22515;SDS011;11424;48.860;9.624;2023-04-01T16:21:58;0.3;;;0.3;;
22515;SDS011;11424;48.860;9.624;2023-04-01T16:26:57;0.6;;;0.6;;
22515;SDS011;11424;48.860;9.624;2023-04-01T16:32:00;1.6;;;1.7;;
22515;SDS011;11424;48.860;9.624;2023-04-01T16:37:00;1.4;;;1.5;;
22515;SDS011;11424;48.860;9.624;2023-04-01T16:42:07;0.9;;;0.9;;
22515;SDS011;11424;48.860;9.624;2023-04-01T16:46:57;1.2;;;1.3;;
22515;SDS011;11424;48.860;9.624;2023-04-01T16:52:00;1;;;1;;
22515;SDS011;11424;48.860;9.624;2023-04-01T16:57:02;4.1;;;8.7;;
22515;SDS011;11424;48.860;9.624;2023-04-01T17:02:01;1.9;;;3.3;;
22515;SDS011;11424;48.860;9.624;2023-04-01T17:07:00;1.4;;;1.5;;
22515;SDS011;11424;48.860;9.624;2023-04-01T17:11:59;1;;;1;;
22515;SDS011;11424;48.860;9.624;2023-04-01T17:17:01;1;;;1;;
22515;SDS011;11424;48.860;9.624;2023-04-01T17:21:57;0.8;;;0.8;;
22515;SDS011;11424;48.860;9.624;2023-04-01T17:26:58;0.9;;;0.9;;
22515;SDS011;11424;48.860;9.624;2023-04-01T17:31:58;1.4;;;1.5;;
22515;SDS011;11424;48.860;9.624;2023-04-01T17:37:00;1.1;;;1.1;;
22515;SDS011;11424;48.860;9.624;2023-04-01T17:41:58;1.7;;;1.8;;
22515;SDS011;11424;48.860;9.624;2023-04-01T17:47:01;1.7;;;1.9;;
22515;SDS011;11424;48.860;9.624;2023-04-01T17:51:58;1.7;;;2.2;;
22515;SDS011;11424;48.860;9.624;2023-04-01T17:57:00;1.3;;;1.4;;
22515;SDS011;11424;48.860;9.624;2023-04-01T18:01:59;1.4;;;1.5;;
22515;SDS011;11424;48.860;9.624;2023-04-01T18:07:02;1.5;;;1.6;;
22515;SDS011;11424;48.860;9.624;2023-04-01T18:11:59;1.4;;;1.5;;
22515;SDS011;11424;48.860;9.624;2023-04-01T18:17:01;1.2;;;1.2;;
22515;SDS011;11424;48.860;9.624;2023-04-01T18:22:08;1.2;;;1.3;;
22515;SDS011;11424;48.860;9.624;2023-04-01T18:27:01;1.1;;;1.1;;
22515;SDS011;11424;48.860;9.624;2023-04-01T18:32:02;1.1;;;1.1;;
22515;SDS011;11424;48.860;9.624;2023-04-01T18:36:58;1.2;;;1.3;;
22515;SDS011;11424;48.860;9.624;2023-04-01T18:41:59;5.9;;;10.8;;
22515;SDS011;11424;48.860;9.624;2023-04-01T18:46:59;2.6;;;3.7;;
22515;SDS011;11424;48.860;9.624;2023-04-01T18:51:57;1.4;;;1.6;;
22515;SDS011;11424;48.860;9.624;2023-04-01T18:57:00;1.3;;;1.4;;
22515;SDS011;11424;48.860;9.624;2023-04-01T19:02:00;1.3;;;1.4;;
22515;SDS011;11424;48.860;9.624;2023-04-01T19:06:57;1.1;;;1.2;;
22515;SDS011;11424;48.860;9.624;2023-04-01T19:12:32;0.9;;;0.9;;
22515;SDS011;11424;48.860;9.624;2023-04-01T19:17:00;1.9;;;2.1;;
22515;SDS011;11424;48.860;9.624;2023-04-01T19:21:58;2;;;2.4;;
22515;SDS011;11424;48.860;9.624;2023-04-01T19:26:58;1.7;;;2.2;;
22515;SDS011;11424;48.860;9.624;2023-04-01T19:31:59;1.7;;;1.8;;
22515;SDS011;11424;48.860;9.624;2023-04-01T19:36:58;6;;;10.6;;
22515;SDS011;11424;48.860;9.624;2023-04-01T19:41:58;11;;;18.7;;
22515;SDS011;11424;48.860;9.624;2023-04-01T19:46:58;10;;;15.9;;
22515;SDS011;11424;48.860;9.624;2023-04-01T19:51:58;5.2;;;7.6;;
22515;SDS011;11424;48.860;9.624;2023-04-01T19:57:00;3.3;;;4.9;;
22515;SDS011;11424;48.860;9.624;2023-04-01T20:01:58;4;;;5.2;;
22515;SDS011;11424;48.860;9.624;2023-04-01T20:06:59;4.3;;;4.7;;
22515;SDS011;11424;48.860;9.624;2023-04-01T20:11:58;3.6;;;4;;
22515;SDS011;11424;48.860;9.624;2023-04-01T20:17:00;3.3;;;4;;
22515;SDS011;11424;48.860;9.624;2023-04-01T20:21:58;2.7;;;3.9;;
22515;SDS011;11424;48.860;9.624;2023-04-01T20:26:59;4.6;;;6.5;;
22515;SDS011;11424;48.860;9.624;2023-04-01T20:31:59;3.9;;;4.5;;
22515;SDS011;11424;48.860;9.624;2023-04-01T20:37:02;2.9;;;3.4;;
22515;SDS011;11424;48.860;9.624;2023-04-01T20:42:01;4.7;;;6.8;;
22515;SDS011;11424;48.860;9.624;2023-04-01T20:46:59;2.6;;;2.9;;
22515;SDS011;11424;48.860;9.624;2023-04-01T20:51:59;3.2;;;4.2;;
22515;SDS011;11424;48.860;9.624;2023-04-01T20:57:00;3.8;;;4.8;;
22515;SDS011;11424;48.860;9.624;2023-04-01T21:02:00;3.8;;;4.2;;
22515;SDS011;11424;48.860;9.624;2023-04-01T21:07:04;4;;;4.5;;
22515;SDS011;11424;48.860;9.624;2023-04-01T21:12:00;3.5;;;4.2;;
22515;SDS011;11424;48.860;9.624;2023-04-01T21:16:59;3;;;3.4;;
22515;SDS011;11424;48.860;9.624;2023-04-01T21:22:07;2;;;2.4;;
22515;SDS011;11424;48.860;9.624;2023-04-01T21:26:59;2.3;;;2.5;;
22515;SDS011;11424;48.860;9.624;2023-04-01T21:32:05;2.3;;;2.9;;
22515;SDS011;11424;48.860;9.624;2023-04-01T21:37:01;1.8;;;2;;
22515;SDS011;11424;48.860;9.624;2023-04-01T21:42:01;1.3;;;1.4;;
22515;SDS011;11424;48.860;9.624;2023-04-01T21:47:08;0.9;;;0.9;;
22515;SDS011;11424;48.860;9.624;2023-04-01T21:52:02;0.8;;;0.8;;
22515;SDS011;11424;48.860;9.624;2023-04-01T21:57:03;0.8;;;0.8;;
22515;SDS011;11424;48.860;9.624;2023-04-01T22:02:03;0.8;;;0.8;;
22515;SDS011;11424;48.860;9.624;2023-04-01T22:06:59;0.9;;;0.9;;
22515;SDS011;11424;48.860;9.624;2023-04-01T22:11:58;0.9;;;0.9;;
22515;SDS011;11424;48.860;9.624;2023-04-01T22:16:58;0.8;;;0.8;;
22515;SDS011;11424;48.860;9.624;2023-04-01T22:21:59;1.4;;;1.5;;
22515;SDS011;11424;48.860;9.624;2023-04-01T22:26:58;1.1;;;1.1;;
22515;SDS011;11424;48.860;9.624;2023-04-01T22:31:59;1.1;;;1.1;;
22515;SDS011;11424;48.860;9.624;2023-04-01T22:36:58;1;;;1;;
22515;SDS011;11424;48.860;9.624;2023-04-01T22:42:00;1;;;1;;
22515;SDS011;11424;48.860;9.624;2023-04-01T22:47:00;1.4;;;1.5;;
22515;SDS011;11424;48.860;9.624;2023-04-01T22:52:00;1.2;;;1.3;;
22515;SDS011;11424;48.860;9.624;2023-04-01T22:56:59;0.9;;;0.9;;
22515;SDS011;11424;48.860;9.624;2023-04-01T23:01:58;1.5;;;1.6;;
22515;SDS011;11424;48.860;9.624;2023-04-01T23:06:59;2;;;2.1;;
22515;SDS011;11424;48.860;9.624;2023-04-01T23:11:58;2.9;;;3.1;;
22515;SDS011;11424;48.860;9.624;2023-04-01T23:17:00;2.6;;;3.8;;
22515;SDS011;11424;48.860;9.624;2023-04-01T23:21:59;2.3;;;2.6;;
22515;SDS011;11424;48.860;9.624;2023-04-01T23:26:58;1.2;;;1.3;;
22515;SDS011;11424;48.860;9.624;2023-04-01T23:31:58;0.8;;;0.8;;
22515;SDS011;11424;48.860;9.624;2023-04-01T23:36:58;0.8;;;1;;
22515;SDS011;11424;48.860;9.624;2023-04-01T23:41:58;0.7;;;0.7;;
22515;SDS011;11424;48.860;9.624;2023-04-01T23:46:57;0.6;;;0.6;;
22515;SDS011;11424;48.860;9.624;2023-04-01T23:51:58;0.5;;;0.5;;
22515;SDS011;11424;48.860;9.624;2023-04-01T23:56:57;0.6;;;1;;
